createdAt,value
2016-02-21T00:00:35.804Z,951.42
2016-02-21T00:01:35.775Z,951.25
2016-02-21T00:02:35.699Z,951.09
2016-02-21T00:03:35.641Z,951.12
2016-02-21T00:04:35.580Z,951.02
2016-02-21T00:05:35.505Z,951.03
2016-02-21T00:06:35.461Z,951.12
2016-02-21T00:07:35.416Z,951.01
2016-02-21T00:08:35.341Z,951.1
2016-02-21T00:09:35.343Z,950.83
2016-02-21T00:10:35.268Z,951.1
2016-02-21T00:11:35.177Z,951.17
2016-02-21T00:12:35.118Z,951.11
2016-02-21T00:13:35.057Z,950.99
2016-02-21T00:14:34.982Z,951.16
2016-02-21T00:15:34.984Z,951.14
2016-02-21T00:16:34.893Z,951.26
2016-02-21T00:17:34.818Z,951.23
2016-02-21T00:18:34.774Z,951.23
2016-02-21T00:19:34.715Z,951.17
2016-02-21T00:20:34.717Z,951.31
2016-02-21T00:21:34.595Z,951.51
2016-02-21T00:22:34.550Z,951.25
2016-02-21T00:23:34.475Z,951.12
2016-02-21T00:24:34.431Z,951.33
2016-02-21T00:25:34.449Z,951.32
2016-02-21T00:26:34.312Z,951.31
2016-02-21T00:27:34.267Z,951.28
2016-02-21T00:28:34.255Z,951.42
2016-02-21T00:29:34.178Z,951.27
2016-02-21T00:30:34.088Z,951.37
2016-02-21T00:31:34.013Z,951.34
2016-02-21T00:32:34.047Z,951.26
2016-02-21T00:33:33.924Z,951.37
2016-02-21T00:34:33.864Z,951.41
2016-02-21T00:35:33.805Z,951.42
2016-02-21T00:36:33.744Z,951.37
2016-02-21T00:37:33.699Z,951.31
2016-02-21T00:38:33.624Z,951.43
2016-02-21T00:39:33.581Z,951.52
2016-02-21T00:40:33.521Z,951.44
2016-02-21T00:41:33.460Z,951.51
2016-02-21T00:42:33.401Z,951.31
2016-02-21T00:43:33.340Z,951.42
2016-02-21T00:44:33.298Z,951.38
2016-02-21T00:45:33.222Z,951.45
2016-02-21T00:46:33.178Z,951.36
2016-02-21T00:47:33.118Z,951.43
2016-02-21T00:48:33.058Z,951.47
2016-02-21T00:49:33.014Z,951.57
2016-02-21T00:50:32.984Z,951.41
2016-02-21T00:51:32.894Z,951.36
2016-02-21T00:52:32.835Z,951.36
2016-02-21T00:53:32.775Z,951.55
2016-02-21T00:54:32.715Z,951.48
2016-02-21T00:55:32.670Z,951.61
2016-02-21T00:56:32.610Z,951.66
2016-02-21T00:57:32.551Z,951.58
2016-02-21T00:58:32.492Z,951.64
2016-02-21T00:59:32.431Z,951.62
2016-02-21T01:00:32.387Z,951.61
2016-02-21T01:01:32.359Z,951.67
2016-02-21T01:02:32.267Z,951.64
2016-02-21T01:03:32.207Z,951.67
2016-02-21T01:04:32.147Z,951.71
2016-02-21T01:05:32.089Z,951.75
2016-02-21T01:06:32.044Z,951.64
2016-02-21T01:07:31.985Z,951.72
2016-02-21T01:08:31.940Z,951.61
2016-02-21T01:09:31.865Z,951.49
2016-02-21T01:10:31.868Z,951.6
2016-02-21T01:11:31.776Z,951.67
2016-02-21T01:12:31.731Z,951.65
2016-02-21T01:13:31.688Z,951.62
2016-02-21T01:14:31.940Z,951.64
2016-02-21T01:15:31.537Z,951.6
2016-02-21T01:16:31.539Z,951.69
2016-02-21T01:17:31.464Z,951.85
2016-02-21T01:18:31.374Z,951.76
2016-02-21T01:19:31.313Z,951.7
2016-02-21T01:20:31.238Z,951.69
2016-02-21T01:21:31.209Z,951.82
2016-02-21T01:22:31.165Z,951.74
2016-02-21T01:23:31.089Z,951.84
2016-02-21T01:24:31.062Z,951.79
2016-02-21T01:25:30.954Z,951.9
2016-02-21T01:26:30.895Z,951.76
2016-02-21T01:27:30.867Z,951.85
2016-02-21T01:28:30.806Z,951.82
2016-02-21T01:29:30.746Z,951.82
2016-02-21T01:30:30.717Z,951.7
2016-02-21T01:31:30.627Z,951.7
2016-02-21T01:32:30.614Z,951.92
2016-02-21T01:33:30.538Z,951.9
2016-02-21T01:34:30.463Z,951.84
2016-02-21T01:35:30.403Z,951.88
2016-02-21T01:36:30.358Z,951.85
2016-02-21T01:37:30.283Z,951.9
2016-02-21T01:38:30.238Z,951.92
2016-02-21T01:39:30.196Z,952.04
2016-02-21T01:40:30.135Z,952
2016-02-21T01:41:30.060Z,951.91
2016-02-21T01:42:30.046Z,951.85
2016-02-21T01:43:29.987Z,951.79
2016-02-21T01:44:29.912Z,951.73
2016-02-21T01:45:29.868Z,951.8
2016-02-21T01:46:29.793Z,951.86
2016-02-21T01:47:29.748Z,951.84
2016-02-21T01:48:29.688Z,951.86
2016-02-21T01:49:29.612Z,951.9
2016-02-21T01:50:29.584Z,951.83
2016-02-21T01:51:29.508Z,951.87
2016-02-21T01:52:29.449Z,951.86
2016-02-21T01:53:29.421Z,951.92
2016-02-21T01:54:29.361Z,951.84
2016-02-21T01:55:29.317Z,952.06
2016-02-21T01:56:29.241Z,952.17
2016-02-21T01:57:29.181Z,951.97
2016-02-21T01:58:29.136Z,951.95
2016-02-21T01:59:29.062Z,951.92
2016-02-21T02:00:29.017Z,952
2016-02-21T02:01:28.973Z,951.86
2016-02-21T02:02:28.897Z,951.77
2016-02-21T02:03:28.916Z,951.76
2016-02-21T02:04:28.777Z,951.72
2016-02-21T02:05:28.750Z,951.72
2016-02-21T02:06:28.690Z,951.67
2016-02-21T02:07:28.911Z,951.58
2016-02-21T02:08:28.570Z,951.65
2016-02-21T02:09:28.541Z,951.5
2016-02-21T02:10:28.482Z,951.73
2016-02-21T02:11:28.406Z,951.47
2016-02-21T02:12:28.330Z,951.4
2016-02-21T02:13:28.302Z,951.6
2016-02-21T02:14:28.243Z,951.55
2016-02-21T02:15:28.277Z,951.67
2016-02-21T02:16:28.154Z,951.55
2016-02-21T02:17:28.062Z,951.56
2016-02-21T02:18:28.316Z,951.56
2016-02-21T02:19:28.053Z,951.49
2016-02-21T02:20:27.899Z,951.51
2016-02-21T02:21:27.902Z,951.34
2016-02-21T02:22:27.811Z,951.51
2016-02-21T02:23:27.735Z,951.45
2016-02-21T02:24:27.691Z,951.52
2016-02-21T02:25:27.647Z,951.6
2016-02-21T02:26:27.681Z,951.64
2016-02-21T02:27:27.528Z,951.57
2016-02-21T02:28:27.499Z,951.73
2016-02-21T02:29:27.408Z,951.78
2016-02-21T02:30:27.348Z,951.64
2016-02-21T02:31:27.320Z,951.74
2016-02-21T02:32:27.259Z,951.75
2016-02-21T02:33:27.184Z,951.67
2016-02-21T02:34:27.140Z,951.68
2016-02-21T02:35:27.064Z,951.63
2016-02-21T02:36:27.020Z,951.69
2016-02-21T02:37:26.977Z,951.81
2016-02-21T02:38:26.932Z,951.78
2016-02-21T02:39:26.872Z,951.79
2016-02-21T02:40:26.797Z,951.87
2016-02-21T02:41:26.753Z,951.79
2016-02-21T02:42:26.693Z,951.89
2016-02-21T02:43:26.633Z,951.76
2016-02-21T02:44:26.588Z,951.73
2016-02-21T02:45:26.544Z,951.76
2016-02-21T02:46:26.468Z,951.67
2016-02-21T02:47:26.425Z,951.76
2016-02-21T02:48:26.365Z,951.66
2016-02-21T02:49:26.321Z,951.69
2016-02-21T02:50:26.262Z,951.76
2016-02-21T02:51:26.194Z,951.82
2016-02-21T02:52:26.126Z,951.74
2016-02-21T02:53:26.072Z,951.86
2016-02-21T02:54:26.002Z,951.88
2016-02-21T02:55:25.934Z,951.9
2016-02-21T02:56:25.852Z,951.87
2016-02-21T02:57:25.804Z,951.99
2016-02-21T02:58:25.804Z,951.89
2016-02-21T02:59:25.693Z,951.89
2016-02-21T03:00:25.646Z,951.86
2016-02-21T03:01:25.584Z,951.94
2016-02-21T03:02:25.522Z,951.95
2016-02-21T03:03:25.461Z,951.99
2016-02-21T03:04:25.509Z,951.95
2016-02-21T03:05:25.354Z,951.92
2016-02-21T03:06:25.402Z,951.92
2016-02-21T03:07:25.248Z,951.98
2016-02-21T03:08:25.267Z,952.03
2016-02-21T03:09:25.114Z,951.79
2016-02-21T03:10:25.287Z,951.92
2016-02-21T03:11:25.086Z,951.83
2016-02-21T03:12:24.980Z,951.88
2016-02-21T03:13:24.905Z,952.01
2016-02-21T03:14:24.861Z,951.98
2016-02-21T03:15:24.785Z,951.89
2016-02-21T03:16:24.757Z,951.97
2016-02-21T03:17:24.696Z,951.83
2016-02-21T03:18:24.621Z,951.81
2016-02-21T03:19:24.592Z,951.89
2016-02-21T03:20:24.532Z,951.78
2016-02-21T03:21:24.473Z,951.89
2016-02-21T03:22:24.398Z,951.84
2016-02-21T03:23:24.354Z,951.62
2016-02-21T03:24:24.309Z,951.93
2016-02-21T03:25:24.249Z,952.04
2016-02-21T03:26:24.205Z,951.91
2016-02-21T03:27:24.129Z,951.96
2016-02-21T03:28:24.085Z,952.06
2016-02-21T03:29:24.026Z,952.02
2016-02-21T03:30:23.998Z,952.12
2016-02-21T03:31:23.922Z,952
2016-02-21T03:32:23.862Z,951.93
2016-02-21T03:33:23.802Z,951.89
2016-02-21T03:34:23.758Z,951.94
2016-02-21T03:35:23.682Z,951.84
2016-02-21T03:36:23.622Z,952
2016-02-21T03:37:23.578Z,952.08
2016-02-21T03:38:23.519Z,952.29
2016-02-21T03:39:23.475Z,951.97
2016-02-21T03:40:23.414Z,951.97
2016-02-21T03:41:23.448Z,952.02
2016-02-21T03:42:23.295Z,951.92
2016-02-21T03:43:23.236Z,952.04
2016-02-21T03:44:23.175Z,951.94
2016-02-21T03:45:23.147Z,951.91
2016-02-21T03:46:23.072Z,951.76
2016-02-21T03:47:23.011Z,951.82
2016-02-21T03:48:22.983Z,951.82
2016-02-21T03:49:22.907Z,951.85
2016-02-21T03:50:22.864Z,951.82
2016-02-21T03:51:22.788Z,951.9
2016-02-21T03:52:22.744Z,951.94
2016-02-21T03:53:22.699Z,952
2016-02-21T03:54:22.655Z,951.86
2016-02-21T03:55:22.580Z,951.78
2016-02-21T03:56:22.567Z,951.94
2016-02-21T03:57:22.475Z,951.91
2016-02-21T03:58:22.448Z,951.93
2016-02-21T03:59:22.373Z,951.87
2016-02-21T04:00:22.328Z,951.85
2016-02-21T04:01:22.236Z,951.87
2016-02-21T04:02:22.192Z,951.77
2016-02-21T04:03:22.196Z,951.81
2016-02-21T04:04:22.073Z,951.82
2016-02-21T04:05:22.014Z,951.8
2016-02-21T04:06:21.984Z,951.83
2016-02-21T04:07:21.925Z,951.86
2016-02-21T04:08:21.864Z,951.53
2016-02-21T04:09:21.805Z,951.74
2016-02-21T04:10:21.760Z,951.6
2016-02-21T04:11:21.700Z,951.76
2016-02-21T04:12:21.642Z,951.76
2016-02-21T04:13:21.628Z,951.74
2016-02-21T04:14:21.538Z,951.7
2016-02-21T04:15:21.586Z,951.77
2016-02-21T04:16:21.449Z,951.74
2016-02-21T04:17:21.358Z,951.53
2016-02-21T04:18:21.345Z,951.71
2016-02-21T04:19:21.255Z,951.62
2016-02-21T04:20:21.210Z,951.77
2016-02-21T04:21:21.150Z,951.51
2016-02-21T04:22:21.105Z,951.59
2016-02-21T04:23:21.093Z,951.67
2016-02-21T04:24:21.002Z,951.72
2016-02-21T04:25:20.942Z,951.7
2016-02-21T04:26:20.960Z,951.79
2016-02-21T04:27:20.854Z,951.59
2016-02-21T04:28:20.779Z,951.61
2016-02-21T04:29:20.718Z,951.41
2016-02-21T04:30:20.658Z,951.41
2016-02-21T04:31:20.598Z,951.45
2016-02-21T04:32:20.587Z,951.56
2016-02-21T04:33:20.495Z,951.4
2016-02-21T04:34:20.435Z,951.51
2016-02-21T04:35:20.390Z,951.51
2016-02-21T04:36:20.315Z,951.47
2016-02-21T04:37:20.286Z,951.52
2016-02-21T04:38:20.212Z,951.55
2016-02-21T04:39:20.150Z,951.44
2016-02-21T04:40:20.123Z,951.41
2016-02-21T04:41:20.047Z,951.34
2016-02-21T04:42:20.003Z,951.25
2016-02-21T04:43:20.005Z,951.18
2016-02-21T04:44:19.899Z,951.09
2016-02-21T04:45:19.839Z,951.11
2016-02-21T04:46:19.811Z,951.2
2016-02-21T04:47:19.705Z,951.19
2016-02-21T04:48:19.660Z,951.44
2016-02-21T04:49:19.600Z,951.34
2016-02-21T04:50:19.540Z,951.12
2016-02-21T04:51:19.512Z,951.18
2016-02-21T04:52:19.420Z,951.27
2016-02-21T04:53:19.392Z,951.4
2016-02-21T04:54:19.333Z,951.39
2016-02-21T04:55:19.273Z,951.32
2016-02-21T04:56:19.229Z,951.41
2016-02-21T04:57:19.199Z,951.5
2016-02-21T04:58:19.124Z,951.47
2016-02-21T04:59:19.064Z,951.42
2016-02-21T05:00:19.004Z,951.55
2016-02-21T05:01:18.976Z,951.51
2016-02-21T05:02:18.901Z,951.46
2016-02-21T05:03:18.840Z,951.41
2016-02-21T05:04:18.797Z,951.56
2016-02-21T05:05:18.721Z,951.55
2016-02-21T05:06:18.677Z,951.52
2016-02-21T05:07:18.648Z,951.56
2016-02-21T05:08:18.573Z,951.58
2016-02-21T05:09:18.529Z,951.62
2016-02-21T05:10:18.453Z,951.74
2016-02-21T05:11:18.409Z,951.73
2016-02-21T05:12:18.349Z,951.76
2016-02-21T05:13:18.321Z,951.81
2016-02-21T05:14:18.246Z,951.72
2016-02-21T05:15:18.186Z,951.87
2016-02-21T05:16:18.111Z,951.93
2016-02-21T05:17:18.066Z,951.95
2016-02-21T05:18:18.022Z,951.96
2016-02-21T05:19:17.977Z,951.95
2016-02-21T05:20:17.886Z,952.03
2016-02-21T05:21:17.842Z,951.96
2016-02-21T05:22:17.799Z,952.09
2016-02-21T05:23:17.739Z,952.02
2016-02-21T05:24:17.694Z,952.05
2016-02-21T05:25:17.634Z,952.02
2016-02-21T05:26:17.590Z,952.11
2016-02-21T05:27:17.515Z,951.96
2016-02-21T05:28:17.487Z,952.07
2016-02-21T05:29:17.457Z,951.89
2016-02-21T05:30:17.352Z,951.99
2016-02-21T05:31:17.370Z,952
2016-02-21T05:32:17.248Z,951.9
2016-02-21T05:33:17.187Z,951.93
2016-02-21T05:34:17.173Z,952.05
2016-02-21T05:35:17.162Z,952.07
2016-02-21T05:36:17.040Z,952.15
2016-02-21T05:37:16.995Z,952.07
2016-02-21T05:38:16.920Z,952.13
2016-02-21T05:39:16.875Z,952.18
2016-02-21T05:40:16.815Z,952.14
2016-02-21T05:41:16.771Z,952.19
2016-02-21T05:42:16.711Z,952.24
2016-02-21T05:43:16.653Z,952.21
2016-02-21T05:44:16.608Z,952.12
2016-02-21T05:45:16.611Z,952.16
2016-02-21T05:46:16.519Z,952.22
2016-02-21T05:47:16.427Z,952.15
2016-02-21T05:48:16.383Z,952.14
2016-02-21T05:49:16.339Z,952.12
2016-02-21T05:50:16.296Z,951.98
2016-02-21T05:51:16.233Z,952.09
2016-02-21T05:52:16.174Z,952
2016-02-21T05:53:16.114Z,951.81
2016-02-21T05:54:16.069Z,951.69
2016-02-21T05:55:16.009Z,951.86
2016-02-21T05:56:15.949Z,951.85
2016-02-21T05:57:15.905Z,951.89
2016-02-21T05:58:15.861Z,951.68
2016-02-21T05:59:15.786Z,951.66
2016-02-21T06:00:15.741Z,951.74
2016-02-21T06:01:15.682Z,951.77
2016-02-21T06:02:15.621Z,951.98
2016-02-21T06:03:15.579Z,951.65
2016-02-21T06:04:15.517Z,951.74
2016-02-21T06:05:15.459Z,951.75
2016-02-21T06:06:15.399Z,951.83
2016-02-21T06:07:15.339Z,951.83
2016-02-21T06:08:15.295Z,951.92
2016-02-21T06:09:15.234Z,951.88
2016-02-21T06:10:15.190Z,951.88
2016-02-21T06:11:15.130Z,952.06
2016-02-21T06:12:15.055Z,952.15
2016-02-21T06:13:15.011Z,952.02
2016-02-21T06:14:14.967Z,952.12
2016-02-21T06:15:14.923Z,952
2016-02-21T06:16:14.847Z,952.21
2016-02-21T06:17:14.803Z,952.37
2016-02-21T06:18:14.759Z,952.47
2016-02-21T06:19:14.700Z,952.22
2016-02-21T06:20:14.639Z,952.33
2016-02-21T06:21:14.611Z,952.27
2016-02-21T06:22:14.536Z,952.52
2016-02-21T06:23:14.460Z,952.37
2016-02-21T06:24:14.416Z,952.28
2016-02-21T06:25:14.402Z,952.35
2016-02-21T06:26:14.296Z,952.29
2016-02-21T06:27:14.236Z,952.26
2016-02-21T06:28:14.192Z,952.28
2016-02-21T06:29:14.132Z,952.32
2016-02-21T06:30:14.088Z,952.39
2016-02-21T06:31:14.028Z,952.27
2016-02-21T06:32:13.968Z,952.29
2016-02-21T06:33:13.908Z,952.4
2016-02-21T06:34:13.880Z,952.31
2016-02-21T06:35:13.821Z,952.36
2016-02-21T06:36:13.745Z,952.29
2016-02-21T06:37:13.685Z,952.3
2016-02-21T06:38:13.656Z,952.36
2016-02-21T06:39:13.596Z,952.34
2016-02-21T06:40:13.661Z,952.34
2016-02-21T06:41:13.523Z,952.48
2016-02-21T06:42:13.464Z,952.21
2016-02-21T06:43:13.373Z,952.27
2016-02-21T06:44:13.329Z,952.2
2016-02-21T06:45:13.284Z,952.23
2016-02-21T06:46:13.224Z,952.32
2016-02-21T06:47:13.164Z,952.33
2016-02-21T06:48:13.106Z,952.4
2016-02-21T06:49:13.061Z,952.25
2016-02-21T06:50:13.001Z,952.2
2016-02-21T06:51:12.941Z,952.35
2016-02-21T06:52:12.897Z,952.25
2016-02-21T06:53:12.821Z,952.38
2016-02-21T06:54:12.777Z,952.43
2016-02-21T06:55:12.734Z,952.45
2016-02-21T06:56:12.674Z,952.5
2016-02-21T06:57:12.630Z,952.46
2016-02-21T06:58:12.585Z,952.51
2016-02-21T06:59:12.525Z,952.42
2016-02-21T07:00:12.481Z,952.51
2016-02-21T07:01:12.421Z,952.51
2016-02-21T07:02:12.502Z,952.49
2016-02-21T07:03:12.286Z,952.57
2016-02-21T07:04:12.257Z,952.57
2016-02-21T07:05:12.213Z,952.59
2016-02-21T07:06:12.138Z,952.63
2016-02-21T07:07:12.078Z,952.55
2016-02-21T07:08:12.034Z,952.5
2016-02-21T07:09:11.974Z,952.43
2016-02-21T07:10:11.914Z,952.65
2016-02-21T07:11:11.870Z,952.49
2016-02-21T07:12:11.842Z,952.57
2016-02-21T07:13:11.766Z,952.4
2016-02-21T07:14:11.690Z,952.41
2016-02-21T07:15:11.631Z,952.54
2016-02-21T07:16:11.586Z,952.38
2016-02-21T07:17:11.527Z,952.45
2016-02-21T07:18:11.483Z,952.57
2016-02-21T07:19:11.423Z,952.33
2016-02-21T07:20:11.425Z,952.58
2016-02-21T07:21:11.319Z,952.3
2016-02-21T07:22:11.400Z,952.58
2016-02-21T07:23:11.214Z,952.46
2016-02-21T07:24:11.155Z,952.44
2016-02-21T07:25:11.111Z,952.54
2016-02-21T07:26:11.051Z,952.71
2016-02-21T07:27:10.976Z,952.65
2016-02-21T07:28:10.963Z,952.65
2016-02-21T07:29:10.934Z,952.68
2016-02-21T07:30:10.843Z,952.65
2016-02-21T07:31:10.767Z,952.77
2016-02-21T07:32:10.739Z,952.8
2016-02-21T07:33:10.680Z,952.62
2016-02-21T07:34:10.635Z,952.69
2016-02-21T07:35:10.575Z,952.68
2016-02-21T07:36:10.499Z,952.58
2016-02-21T07:37:10.456Z,952.74
2016-02-21T07:38:10.412Z,952.6
2016-02-21T07:39:10.368Z,952.64
2016-02-21T07:40:10.293Z,952.72
2016-02-21T07:41:10.279Z,952.73
2016-02-21T07:42:10.204Z,952.7
2016-02-21T07:43:10.143Z,952.83
2016-02-21T07:44:10.115Z,952.73
2016-02-21T07:45:10.008Z,952.74
2016-02-21T07:46:09.949Z,952.85
2016-02-21T07:47:09.967Z,952.83
2016-02-21T07:48:09.892Z,952.71
2016-02-21T07:49:09.863Z,952.79
2016-02-21T07:50:09.741Z,952.83
2016-02-21T07:51:09.696Z,952.79
2016-02-21T07:52:09.636Z,952.84
2016-02-21T07:53:09.609Z,952.89
2016-02-21T07:54:09.548Z,952.92
2016-02-21T07:55:09.489Z,952.89
2016-02-21T07:56:09.428Z,953.05
2016-02-21T07:57:09.369Z,953
2016-02-21T07:58:09.340Z,952.79
2016-02-21T07:59:09.328Z,952.94
2016-02-21T08:00:09.236Z,952.98
2016-02-21T08:01:09.161Z,952.99
2016-02-21T08:02:09.102Z,952.88
2016-02-21T08:03:09.041Z,952.95
2016-02-21T08:04:08.997Z,953.06
2016-02-21T08:05:08.938Z,952.99
2016-02-21T08:06:08.955Z,953.02
2016-02-21T08:07:09.052Z,953.06
2016-02-21T08:08:08.790Z,953
2016-02-21T08:09:08.714Z,953.09
2016-02-21T08:10:08.716Z,953.12
2016-02-21T08:11:08.626Z,953.08
2016-02-21T08:12:08.566Z,953.16
2016-02-21T08:13:08.521Z,953.15
2016-02-21T08:14:08.477Z,953.26
2016-02-21T08:15:08.402Z,953.27
2016-02-21T08:16:08.357Z,953.19
2016-02-21T08:17:08.298Z,953.25
2016-02-21T08:18:08.254Z,953.24
2016-02-21T08:19:08.209Z,953.29
2016-02-21T08:20:08.134Z,953.27
2016-02-21T08:21:08.058Z,953.33
2016-02-21T08:22:08.031Z,953.31
2016-02-21T08:23:07.986Z,953.32
2016-02-21T08:24:07.926Z,953.31
2016-02-21T08:25:07.866Z,953.38
2016-02-21T08:26:07.838Z,953.22
2016-02-21T08:27:07.746Z,953.31
2016-02-21T08:28:07.718Z,953.24
2016-02-21T08:29:07.658Z,953.3
2016-02-21T08:30:07.614Z,953.27
2016-02-21T08:31:07.539Z,953.21
2016-02-21T08:32:07.510Z,953.35
2016-02-21T08:33:07.435Z,953.25
2016-02-21T08:34:07.390Z,953.22
2016-02-21T08:35:07.331Z,953.2
2016-02-21T08:36:07.285Z,953.13
2016-02-21T08:37:07.368Z,953.23
2016-02-21T08:38:07.291Z,953.28
2016-02-21T08:39:07.216Z,953.17
2016-02-21T08:40:07.062Z,953.23
2016-02-21T08:41:07.018Z,953.19
2016-02-21T08:42:06.959Z,953.1
2016-02-21T08:43:06.883Z,953.18
2016-02-21T08:44:06.855Z,953.21
2016-02-21T08:45:06.810Z,953
2016-02-21T08:46:06.735Z,953
2016-02-21T08:47:06.690Z,953.08
2016-02-21T08:48:06.631Z,953.07
2016-02-21T08:49:06.587Z,953.04
2016-02-21T08:50:06.542Z,952.96
2016-02-21T08:51:06.484Z,953
2016-02-21T08:52:06.423Z,953.06
2016-02-21T08:53:06.379Z,952.87
2016-02-21T08:54:06.319Z,953.07
2016-02-21T08:55:06.275Z,952.96
2016-02-21T08:56:06.230Z,952.99
2016-02-21T08:57:06.171Z,953.09
2016-02-21T08:58:06.111Z,953.12
2016-02-21T08:59:06.036Z,953.3
2016-02-21T09:00:05.992Z,953.12
2016-02-21T09:01:05.947Z,953.18
2016-02-21T09:02:05.888Z,953.19
2016-02-21T09:03:05.828Z,953.07
2016-02-21T09:04:05.768Z,953.44
2016-02-21T09:05:05.708Z,953.21
2016-02-21T09:06:05.680Z,953.37
2016-02-21T09:07:05.604Z,953.22
2016-02-21T09:08:05.560Z,953.2
2016-02-21T09:09:05.500Z,953.24
2016-02-21T09:10:05.457Z,953.39
2016-02-21T09:11:05.396Z,953.22
2016-02-21T09:12:05.352Z,953.31
2016-02-21T09:13:05.448Z,953.41
2016-02-21T09:14:05.232Z,953.39
2016-02-21T09:15:05.376Z,953.47
2016-02-21T09:16:05.269Z,953.53
2016-02-21T09:17:05.100Z,953.37
2016-02-21T09:18:05.024Z,953.45
2016-02-21T09:19:04.980Z,953.38
2016-02-21T09:20:04.904Z,953.26
2016-02-21T09:21:04.861Z,953.24
2016-02-21T09:22:05.034Z,953.25
2016-02-21T09:23:04.757Z,953.44
2016-02-21T09:24:04.697Z,953.3
2016-02-21T09:25:04.652Z,953.26
2016-02-21T09:26:04.593Z,953.31
2016-02-21T09:27:04.533Z,953.28
2016-02-21T09:28:04.458Z,953.34
2016-02-21T09:29:04.428Z,953.38
2016-02-21T09:30:04.385Z,953.44
2016-02-21T09:31:04.309Z,953.46
2016-02-21T09:32:04.280Z,953.43
2016-02-21T09:33:04.221Z,953.51
2016-02-21T09:34:04.177Z,953.64
2016-02-21T09:35:04.117Z,953.61
2016-02-21T09:36:04.041Z,953.57
2016-02-21T09:37:03.997Z,953.58
2016-02-21T09:38:03.953Z,953.43
2016-02-21T09:39:03.893Z,953.47
2016-02-21T09:40:03.818Z,953.54
2016-02-21T09:41:03.867Z,953.54
2016-02-21T09:42:03.714Z,953.57
2016-02-21T09:43:03.685Z,953.59
2016-02-21T09:44:03.626Z,953.57
2016-02-21T09:45:03.565Z,953.55
2016-02-21T09:46:03.521Z,953.58
2016-02-21T09:47:03.493Z,953.55
2016-02-21T09:48:03.417Z,953.58
2016-02-21T09:49:03.358Z,953.53
2016-02-21T09:50:03.314Z,953.37
2016-02-21T09:51:03.253Z,953.57
2016-02-21T09:52:03.209Z,953.63
2016-02-21T09:53:03.197Z,953.63
2016-02-21T09:54:03.120Z,953.72
2016-02-21T09:55:03.046Z,953.64
2016-02-21T09:56:03.080Z,953.74
2016-02-21T09:57:02.942Z,953.72
2016-02-21T09:58:02.881Z,953.68
2016-02-21T09:59:02.838Z,953.81
2016-02-21T10:00:02.762Z,953.62
2016-02-21T10:01:02.828Z,953.88
2016-02-21T10:02:02.674Z,953.81
2016-02-21T10:03:02.614Z,953.82
2016-02-21T10:04:02.616Z,953.8
2016-02-21T10:05:02.558Z,953.74
2016-02-21T10:06:02.560Z,953.74
2016-02-21T10:07:02.406Z,953.71
2016-02-21T10:08:02.347Z,953.65
2016-02-21T10:09:02.286Z,953.73
2016-02-21T10:10:02.243Z,953.75
2016-02-21T10:11:02.214Z,953.71
2016-02-21T10:12:02.155Z,953.7
2016-02-21T10:13:02.095Z,953.62
2016-02-21T10:14:02.034Z,953.69
2016-02-21T10:15:01.960Z,953.66
2016-02-21T10:16:01.930Z,953.77
2016-02-21T10:17:01.871Z,953.73
2016-02-21T10:18:01.827Z,953.63
2016-02-21T10:19:01.798Z,953.69
2016-02-21T10:20:01.785Z,953.56
2016-02-21T10:21:01.663Z,953.69
2016-02-21T10:22:01.619Z,953.57
2016-02-21T10:23:01.560Z,953.64
2016-02-21T10:24:01.499Z,953.6
2016-02-21T10:25:01.440Z,953.54
2016-02-21T10:26:01.395Z,953.62
2016-02-21T10:27:01.335Z,953.57
2016-02-21T10:28:01.292Z,953.58
2016-02-21T10:29:01.232Z,953.66
2016-02-21T10:30:01.187Z,953.55
2016-02-21T10:31:01.190Z,953.63
2016-02-21T10:32:01.365Z,953.68
2016-02-21T10:33:01.023Z,953.6
2016-02-21T10:34:00.948Z,953.64
2016-02-21T10:35:00.920Z,953.63
2016-02-21T10:36:00.876Z,953.69
2016-02-21T10:37:00.816Z,953.66
2016-02-21T10:38:00.881Z,953.61
2016-02-21T10:39:00.696Z,953.6
2016-02-21T10:40:00.652Z,953.6
2016-02-21T10:41:00.655Z,953.71
2016-02-21T10:42:00.548Z,953.75
2016-02-21T10:43:00.503Z,953.63
2016-02-21T10:44:00.444Z,953.58
2016-02-21T10:45:00.383Z,953.56
2016-02-21T10:46:00.340Z,953.66
2016-02-21T10:47:00.405Z,953.71
2016-02-21T10:48:00.283Z,953.63
2016-02-21T10:49:00.160Z,953.59
2016-02-21T10:50:00.116Z,953.6
2016-02-21T10:51:00.071Z,953.66
2016-02-21T10:52:00.012Z,953.68
2016-02-21T10:52:59.984Z,953.68
2016-02-21T10:53:59.924Z,953.57
2016-02-21T10:54:59.849Z,953.57
2016-02-21T10:55:59.788Z,953.53
2016-02-21T10:56:59.760Z,953.64
2016-02-21T10:57:59.700Z,953.62
2016-02-21T10:58:59.656Z,953.64
2016-02-21T10:59:59.658Z,953.55
2016-02-21T11:00:59.552Z,953.45
2016-02-21T11:01:59.476Z,953.47
2016-02-21T11:02:59.448Z,953.47
2016-02-21T11:03:59.467Z,953.4
2016-02-21T11:04:59.328Z,953.39
2016-02-21T11:05:59.269Z,953.36
2016-02-21T11:06:59.225Z,953.25
2016-02-21T11:07:59.211Z,953.27
2016-02-21T11:08:59.120Z,953.25
2016-02-21T11:09:59.092Z,953.2
2016-02-21T11:10:59.016Z,953.18
2016-02-21T11:11:58.972Z,953.21
2016-02-21T11:12:59.005Z,953.08
2016-02-21T11:13:58.868Z,953.11
2016-02-21T11:14:58.871Z,953.19
2016-02-21T11:15:58.749Z,953.19
2016-02-21T11:16:58.767Z,953.15
2016-02-21T11:17:58.661Z,953.05
2016-02-21T11:18:58.585Z,953.01
2016-02-21T11:19:58.541Z,953.02
2016-02-21T11:20:58.496Z,953.04
2016-02-21T11:21:58.468Z,953.05
2016-02-21T11:22:58.393Z,953.08
2016-02-21T11:23:58.332Z,953.13
2016-02-21T11:24:58.304Z,953.05
2016-02-21T11:25:58.229Z,952.96
2016-02-21T11:26:58.185Z,952.96
2016-02-21T11:27:58.140Z,953.01
2016-02-21T11:28:58.081Z,953.01
2016-02-21T11:29:58.037Z,952.99
2016-02-21T11:30:57.976Z,953.09
2016-02-21T11:31:57.964Z,953.03
2016-02-21T11:32:57.873Z,953.07
2016-02-21T11:33:57.813Z,953.04
2016-02-21T11:34:57.768Z,953.16
2016-02-21T11:35:57.724Z,953.05
2016-02-21T11:36:57.664Z,953.07
2016-02-21T11:37:57.620Z,953.07
2016-02-21T11:38:57.576Z,953.06
2016-02-21T11:39:57.500Z,953.08
2016-02-21T11:40:57.472Z,953.08
2016-02-21T11:41:57.412Z,952.99
2016-02-21T11:42:57.369Z,953.13
2016-02-21T11:43:57.355Z,953.08
2016-02-21T11:44:57.389Z,953.09
2016-02-21T11:45:57.219Z,953.15
2016-02-21T11:46:57.175Z,953.12
2016-02-21T11:47:57.132Z,953.04
2016-02-21T11:48:57.119Z,953.14
2016-02-21T11:49:57.027Z,953.09
2016-02-21T11:50:56.968Z,953.09
2016-02-21T11:51:56.924Z,953.11
2016-02-21T11:52:56.879Z,953.19
2016-02-21T11:53:56.819Z,952.97
2016-02-21T11:54:56.791Z,953.09
2016-02-21T11:55:56.731Z,953.14
2016-02-21T11:56:56.653Z,953.11
2016-02-21T11:57:56.594Z,953.13
2016-02-21T11:58:56.520Z,953.17
2016-02-21T11:59:56.476Z,953.15
2016-02-21T12:00:56.401Z,953.05
2016-02-21T12:01:56.423Z,953.08
2016-02-21T12:02:56.263Z,953.1
2016-02-21T12:03:56.230Z,953.13
2016-02-21T12:04:56.165Z,953.06
2016-02-21T12:05:56.100Z,953.12
2016-02-21T12:06:56.036Z,953.08
2016-02-21T12:07:56.004Z,953.03
2016-02-21T12:08:55.959Z,953.14
2016-02-21T12:09:55.881Z,952.99
2016-02-21T12:10:55.835Z,952.97
2016-02-21T12:11:55.790Z,952.9
2016-02-21T12:12:55.728Z,953.11
2016-02-21T12:13:55.684Z,952.99
2016-02-21T12:14:55.638Z,953.07
2016-02-21T12:15:55.579Z,952.95
2016-02-21T12:16:55.533Z,953.01
2016-02-21T12:17:55.489Z,952.9
2016-02-21T12:18:55.413Z,952.99
2016-02-21T12:19:55.354Z,952.86
2016-02-21T12:20:55.325Z,952.92
2016-02-21T12:21:55.281Z,952.9
2016-02-21T12:22:55.206Z,952.9
2016-02-21T12:23:55.162Z,953.07
2016-02-21T12:24:55.118Z,952.97
2016-02-21T12:25:55.042Z,952.87
2016-02-21T12:26:55.013Z,952.99
2016-02-21T12:27:54.938Z,952.98
2016-02-21T12:28:54.910Z,952.98
2016-02-21T12:29:54.865Z,953.16
2016-02-21T12:30:54.790Z,953.38